sensor_id;sensor_type;location;lat;lon;timestamp;pressure;altitude;pressure_sealevel;temperature;humidity
16690;BME280;8458;52.220;9.884;2023-06-26T00:01:00;100616.06;;;24.24;73.83
16690;BME280;8458;52.220;9.884;2023-06-26T00:03:27;100615.69;;;24.26;73.84
16690;BME280;8458;52.220;9.884;2023-06-26T00:05:54;100618.53;;;24.26;73.73
16690;BME280;8458;52.220;9.884;2023-06-26T00:08:26;100620.44;;;24.22;73.88
16690;BME280;8458;52.220;9.884;2023-06-26T00:10:52;100616.91;;;24.25;73.31
16690;BME280;8458;52.220;9.884;2023-06-26T00:13:20;100606.88;;;24.15;73.64
16690;BME280;8458;52.220;9.884;2023-06-26T00:15:46;100605.03;;;24.07;74.02
16690;BME280;8458;52.220;9.884;2023-06-26T00:18:13;100607.03;;;24.06;73.91
16690;BME280;8458;52.220;9.884;2023-06-26T00:20:39;100599.97;;;24.00;73.99
16690;BME280;8458;52.220;9.884;2023-06-26T00:23:06;100598.31;;;23.99;73.94
16690;BME280;8458;52.220;9.884;2023-06-26T00:25:32;100599.13;;;23.99;73.85
16690;BME280;8458;52.220;9.884;2023-06-26T00:27:59;100595.63;;;23.90;73.94
16690;BME280;8458;52.220;9.884;2023-06-26T00:30:27;100588.44;;;23.93;73.57
16690;BME280;8458;52.220;9.884;2023-06-26T00:32:54;100599.53;;;23.86;74.26
16690;BME280;8458;52.220;9.884;2023-06-26T00:35:21;100597.38;;;23.83;74.59
16690;BME280;8458;52.220;9.884;2023-06-26T00:37:47;100594.44;;;23.79;74.87
16690;BME280;8458;52.220;9.884;2023-06-26T00:40:14;100598.94;;;23.80;75.16
16690;BME280;8458;52.220;9.884;2023-06-26T00:42:41;100597.63;;;23.77;75.37
16690;BME280;8458;52.220;9.884;2023-06-26T00:45:08;100595.78;;;23.69;75.36
16690;BME280;8458;52.220;9.884;2023-06-26T00:47:36;100592.34;;;23.63;75.48
16690;BME280;8458;52.220;9.884;2023-06-26T00:50:04;100597.19;;;23.63;75.86
16690;BME280;8458;52.220;9.884;2023-06-26T00:52:31;100583.41;;;23.61;75.70
16690;BME280;8458;52.220;9.884;2023-06-26T00:54:58;100580.47;;;23.58;75.37
16690;BME280;8458;52.220;9.884;2023-06-26T00:57:24;100584.84;;;23.55;75.60
16690;BME280;8458;52.220;9.884;2023-06-26T00:59:51;100579.97;;;23.56;75.90
16690;BME280;8458;52.220;9.884;2023-06-26T01:02:17;100574.31;;;23.56;75.53
16690;BME280;8458;52.220;9.884;2023-06-26T01:04:46;100565.16;;;23.47;75.50
16690;BME280;8458;52.220;9.884;2023-06-26T01:07:14;100569.88;;;23.42;75.27
16690;BME280;8458;52.220;9.884;2023-06-26T01:09:42;100571.31;;;23.36;75.86
16690;BME280;8458;52.220;9.884;2023-06-26T01:12:08;100567.97;;;23.34;75.58
16690;BME280;8458;52.220;9.884;2023-06-26T01:14:35;100571.88;;;23.30;75.55
16690;BME280;8458;52.220;9.884;2023-06-26T01:17:03;100574.34;;;23.31;75.22
16690;BME280;8458;52.220;9.884;2023-06-26T01:19:31;100563.28;;;23.26;75.69
16690;BME280;8458;52.220;9.884;2023-06-26T01:22:10;100570.81;;;23.22;76.15
16690;BME280;8458;52.220;9.884;2023-06-26T01:24:45;100564.94;;;23.15;76.61
16690;BME280;8458;52.220;9.884;2023-06-26T01:27:20;100554.09;;;23.17;76.13
16690;BME280;8458;52.220;9.884;2023-06-26T01:29:48;100557.63;;;23.14;75.74
16690;BME280;8458;52.220;9.884;2023-06-26T01:32:15;100552.53;;;23.07;75.36
16690;BME280;8458;52.220;9.884;2023-06-26T01:34:43;100551.47;;;22.99;76.27
16690;BME280;8458;52.220;9.884;2023-06-26T01:37:10;100548.88;;;22.94;76.54
16690;BME280;8458;52.220;9.884;2023-06-26T01:39:37;100547.09;;;22.89;76.58
16690;BME280;8458;52.220;9.884;2023-06-26T01:42:04;100542.75;;;22.80;77.16
16690;BME280;8458;52.220;9.884;2023-06-26T01:44:35;100546.38;;;22.80;76.59
16690;BME280;8458;52.220;9.884;2023-06-26T01:47:04;100540.63;;;22.77;76.63
16690;BME280;8458;52.220;9.884;2023-06-26T01:49:38;100538.94;;;22.76;76.64
16690;BME280;8458;52.220;9.884;2023-06-26T01:52:12;100543.88;;;22.66;76.53
16690;BME280;8458;52.220;9.884;2023-06-26T01:54:47;100534.81;;;22.61;76.76
16690;BME280;8458;52.220;9.884;2023-06-26T01:57:17;100533.78;;;22.65;76.52
16690;BME280;8458;52.220;9.884;2023-06-26T01:59:46;100527.63;;;22.63;76.24
16690;BME280;8458;52.220;9.884;2023-06-26T02:02:13;100529.72;;;22.54;76.61
16690;BME280;8458;52.220;9.884;2023-06-26T02:04:40;100535.88;;;22.56;76.33
16690;BME280;8458;52.220;9.884;2023-06-26T02:07:07;100524.09;;;22.54;75.77
16690;BME280;8458;52.220;9.884;2023-06-26T02:09:35;100518.19;;;22.47;76.30
16690;BME280;8458;52.220;9.884;2023-06-26T02:12:01;100519.84;;;22.48;76.73
16690;BME280;8458;52.220;9.884;2023-06-26T02:14:28;100509.50;;;22.52;76.50
16690;BME280;8458;52.220;9.884;2023-06-26T02:16:56;100500.22;;;22.51;76.54
16690;BME280;8458;52.220;9.884;2023-06-26T02:19:22;100507.38;;;22.49;76.80
16690;BME280;8458;52.220;9.884;2023-06-26T02:21:50;100506.91;;;22.47;76.89
16690;BME280;8458;52.220;9.884;2023-06-26T02:24:16;100506.75;;;22.43;77.30
16690;BME280;8458;52.220;9.884;2023-06-26T02:26:43;100516.53;;;22.46;76.89
16690;BME280;8458;52.220;9.884;2023-06-26T02:29:11;100509.22;;;22.45;76.80
16690;BME280;8458;52.220;9.884;2023-06-26T02:31:37;100513.94;;;22.41;76.80
16690;BME280;8458;52.220;9.884;2023-06-26T02:34:06;100513.69;;;22.33;77.07
16690;BME280;8458;52.220;9.884;2023-06-26T02:36:32;100508.88;;;22.34;76.37
16690;BME280;8458;52.220;9.884;2023-06-26T02:38:59;100504.59;;;22.28;76.88
16690;BME280;8458;52.220;9.884;2023-06-26T02:41:25;100502.94;;;22.27;77.12
16690;BME280;8458;52.220;9.884;2023-06-26T02:43:52;100495.16;;;22.24;77.75
16690;BME280;8458;52.220;9.884;2023-06-26T02:46:18;100492.22;;;22.20;78.16
16690;BME280;8458;52.220;9.884;2023-06-26T02:48:45;100500.69;;;22.20;77.91
16690;BME280;8458;52.220;9.884;2023-06-26T02:51:12;100488.78;;;22.14;77.95
16690;BME280;8458;52.220;9.884;2023-06-26T02:53:39;100494.22;;;22.19;77.17
16690;BME280;8458;52.220;9.884;2023-06-26T02:56:05;100489.59;;;22.15;77.07
16690;BME280;8458;52.220;9.884;2023-06-26T02:58:32;100494.31;;;22.11;75.91
16690;BME280;8458;52.220;9.884;2023-06-26T03:00:58;100486.66;;;22.11;75.94
16690;BME280;8458;52.220;9.884;2023-06-26T03:03:24;100483.03;;;22.11;75.84
16690;BME280;8458;52.220;9.884;2023-06-26T03:05:51;100480.56;;;22.09;76.20
16690;BME280;8458;52.220;9.884;2023-06-26T03:08:19;100476.41;;;22.07;76.19
16690;BME280;8458;52.220;9.884;2023-06-26T03:10:45;100481.09;;;22.02;76.42
16690;BME280;8458;52.220;9.884;2023-06-26T03:13:12;100476.38;;;21.94;76.91
16690;BME280;8458;52.220;9.884;2023-06-26T03:15:38;100467.91;;;21.94;77.16
16690;BME280;8458;52.220;9.884;2023-06-26T03:18:05;100465.56;;;21.96;77.34
16690;BME280;8458;52.220;9.884;2023-06-26T03:20:31;100466.41;;;21.97;77.66
16690;BME280;8458;52.220;9.884;2023-06-26T03:22:58;100467.22;;;21.97;77.77
16690;BME280;8458;52.220;9.884;2023-06-26T03:25:26;100469.22;;;21.97;77.51
16690;BME280;8458;52.220;9.884;2023-06-26T03:27:52;100468.88;;;21.98;77.45
16690;BME280;8458;52.220;9.884;2023-06-26T03:30:19;100460.06;;;22.00;77.62
16690;BME280;8458;52.220;9.884;2023-06-26T03:32:45;100462.25;;;21.94;77.51
16690;BME280;8458;52.220;9.884;2023-06-26T03:35:12;100462.72;;;21.96;77.00
16690;BME280;8458;52.220;9.884;2023-06-26T03:37:38;100461.44;;;21.94;76.62
16690;BME280;8458;52.220;9.884;2023-06-26T03:40:06;100460.88;;;22.00;76.02
16690;BME280;8458;52.220;9.884;2023-06-26T03:42:34;100457.69;;;22.02;76.15
16690;BME280;8458;52.220;9.884;2023-06-26T03:45:01;100461.94;;;22.08;75.18
16690;BME280;8458;52.220;9.884;2023-06-26T03:47:27;100450.78;;;22.12;74.95
16690;BME280;8458;52.220;9.884;2023-06-26T03:49:54;100452.56;;;22.16;74.40
16690;BME280;8458;52.220;9.884;2023-06-26T03:52:20;100451.03;;;22.19;74.07
16690;BME280;8458;52.220;9.884;2023-06-26T03:54:47;100446.56;;;22.18;73.60
16690;BME280;8458;52.220;9.884;2023-06-26T03:57:14;100454.81;;;22.23;73.14
16690;BME280;8458;52.220;9.884;2023-06-26T03:59:42;100456.00;;;22.22;73.36
16690;BME280;8458;52.220;9.884;2023-06-26T04:02:08;100450.34;;;22.22;73.89
16690;BME280;8458;52.220;9.884;2023-06-26T04:04:34;100449.63;;;22.25;73.75
16690;BME280;8458;52.220;9.884;2023-06-26T04:07:01;100450.81;;;22.24;74.12
16690;BME280;8458;52.220;9.884;2023-06-26T04:09:28;100453.63;;;22.24;74.71
16690;BME280;8458;52.220;9.884;2023-06-26T04:11:54;100448.47;;;22.26;74.63
16690;BME280;8458;52.220;9.884;2023-06-26T04:14:21;100444.81;;;22.26;74.63
16690;BME280;8458;52.220;9.884;2023-06-26T04:16:48;100450.09;;;22.27;74.07
16690;BME280;8458;52.220;9.884;2023-06-26T04:19:15;100445.44;;;22.31;74.26
16690;BME280;8458;52.220;9.884;2023-06-26T04:21:42;100444.41;;;22.36;74.30
16690;BME280;8458;52.220;9.884;2023-06-26T04:24:08;100443.69;;;22.39;74.37
16690;BME280;8458;52.220;9.884;2023-06-26T04:26:35;100444.63;;;22.43;74.82
16690;BME280;8458;52.220;9.884;2023-06-26T04:29:02;100435.09;;;22.48;75.04
16690;BME280;8458;52.220;9.884;2023-06-26T04:31:28;100434.38;;;22.51;75.46
16690;BME280;8458;52.220;9.884;2023-06-26T04:33:56;100430.88;;;22.54;75.51
16690;BME280;8458;52.220;9.884;2023-06-26T04:36:24;100432.41;;;22.51;76.10
16690;BME280;8458;52.220;9.884;2023-06-26T04:38:53;100428.03;;;22.54;75.68
16690;BME280;8458;52.220;9.884;2023-06-26T04:41:20;100428.28;;;22.61;75.91
16690;BME280;8458;52.220;9.884;2023-06-26T04:43:47;100430.28;;;22.61;76.50
16690;BME280;8458;52.220;9.884;2023-06-26T04:46:13;100423.59;;;22.65;76.02
16690;BME280;8458;52.220;9.884;2023-06-26T04:48:40;100425.00;;;22.71;76.38
16690;BME280;8458;52.220;9.884;2023-06-26T04:51:08;100421.47;;;22.74;76.50
16690;BME280;8458;52.220;9.884;2023-06-26T04:53:37;100420.50;;;22.83;77.25
16690;BME280;8458;52.220;9.884;2023-06-26T04:56:03;100414.16;;;22.86;77.22
16690;BME280;8458;52.220;9.884;2023-06-26T04:58:30;100424.84;;;22.92;75.89
16690;BME280;8458;52.220;9.884;2023-06-26T05:00:56;100418.97;;;22.98;74.41
16690;BME280;8458;52.220;9.884;2023-06-26T05:03:24;100413.41;;;23.01;75.27
16690;BME280;8458;52.220;9.884;2023-06-26T05:05:50;100411.19;;;23.07;75.46
16690;BME280;8458;52.220;9.884;2023-06-26T05:08:22;100414.59;;;23.13;75.16
16690;BME280;8458;52.220;9.884;2023-06-26T05:10:49;100408.34;;;23.19;74.10
16690;BME280;8458;52.220;9.884;2023-06-26T05:13:15;100409.16;;;23.20;72.04
16690;BME280;8458;52.220;9.884;2023-06-26T05:15:43;100407.28;;;23.24;72.09
16690;BME280;8458;52.220;9.884;2023-06-26T05:18:09;100402.09;;;23.26;71.90
16690;BME280;8458;52.220;9.884;2023-06-26T05:20:36;100403.84;;;23.31;70.66
16690;BME280;8458;52.220;9.884;2023-06-26T05:23:05;100397.56;;;23.37;70.23
16690;BME280;8458;52.220;9.884;2023-06-26T05:25:33;100403.34;;;23.41;70.08
16690;BME280;8458;52.220;9.884;2023-06-26T05:28:00;100392.22;;;23.48;69.05
16690;BME280;8458;52.220;9.884;2023-06-26T05:30:27;100393.06;;;23.49;69.12
16690;BME280;8458;52.220;9.884;2023-06-26T05:32:56;100398.44;;;23.54;69.42
16690;BME280;8458;52.220;9.884;2023-06-26T05:35:28;100390.19;;;23.61;69.01
16690;BME280;8458;52.220;9.884;2023-06-26T05:37:55;100389.47;;;23.64;69.96
16690;BME280;8458;52.220;9.884;2023-06-26T05:40:23;100387.06;;;23.66;69.06
16690;BME280;8458;52.220;9.884;2023-06-26T05:42:51;100385.19;;;23.70;69.80
16690;BME280;8458;52.220;9.884;2023-06-26T05:45:18;100393.84;;;23.77;68.43
16690;BME280;8458;52.220;9.884;2023-06-26T05:47:44;100382.53;;;23.77;68.33
16690;BME280;8458;52.220;9.884;2023-06-26T05:50:12;100378.72;;;23.86;68.84
16690;BME280;8458;52.220;9.884;2023-06-26T05:52:39;100385.03;;;23.95;67.71
16690;BME280;8458;52.220;9.884;2023-06-26T05:55:07;100380.75;;;24.01;68.36
16690;BME280;8458;52.220;9.884;2023-06-26T05:57:35;100380.50;;;24.06;67.10
16690;BME280;8458;52.220;9.884;2023-06-26T06:00:04;100372.66;;;24.15;68.53
16690;BME280;8458;52.220;9.884;2023-06-26T06:02:36;100378.59;;;24.26;68.52
16690;BME280;8458;52.220;9.884;2023-06-26T06:05:03;100381.72;;;24.37;68.12
16690;BME280;8458;52.220;9.884;2023-06-26T06:07:30;100383.53;;;24.45;67.09
16690;BME280;8458;52.220;9.884;2023-06-26T06:09:57;100379.22;;;24.51;67.31
16690;BME280;8458;52.220;9.884;2023-06-26T06:12:23;100378.22;;;24.60;68.65
16690;BME280;8458;52.220;9.884;2023-06-26T06:14:51;100372.38;;;24.68;69.30
16690;BME280;8458;52.220;9.884;2023-06-26T06:17:18;100377.84;;;24.77;68.08
16690;BME280;8458;52.220;9.884;2023-06-26T06:19:45;100373.16;;;24.85;68.27
16690;BME280;8458;52.220;9.884;2023-06-26T06:22:12;100375.34;;;24.92;67.25
16690;BME280;8458;52.220;9.884;2023-06-26T06:24:38;100376.69;;;24.98;64.85
16690;BME280;8458;52.220;9.884;2023-06-26T06:27:05;100368.78;;;25.07;65.47
16690;BME280;8458;52.220;9.884;2023-06-26T06:29:31;100370.59;;;25.15;64.68
16690;BME280;8458;52.220;9.884;2023-06-26T06:31:58;100374.75;;;25.21;62.83
16690;BME280;8458;52.220;9.884;2023-06-26T06:34:26;100365.94;;;25.27;62.89
16690;BME280;8458;52.220;9.884;2023-06-26T06:36:52;100357.63;;;25.34;63.39
16690;BME280;8458;52.220;9.884;2023-06-26T06:39:18;100365.56;;;25.44;62.92
16690;BME280;8458;52.220;9.884;2023-06-26T06:41:45;100371.34;;;25.51;63.89
16690;BME280;8458;52.220;9.884;2023-06-26T06:44:12;100368.28;;;25.60;62.20
16690;BME280;8458;52.220;9.884;2023-06-26T06:46:39;100365.97;;;25.66;61.83
16690;BME280;8458;52.220;9.884;2023-06-26T06:49:05;100362.81;;;25.71;62.10
16690;BME280;8458;52.220;9.884;2023-06-26T06:51:33;100357.34;;;25.82;63.10
16690;BME280;8458;52.220;9.884;2023-06-26T06:54:00;100364.75;;;25.86;62.52
16690;BME280;8458;52.220;9.884;2023-06-26T06:56:27;100364.88;;;25.93;62.01
16690;BME280;8458;52.220;9.884;2023-06-26T06:58:53;100370.56;;;25.93;61.25
16690;BME280;8458;52.220;9.884;2023-06-26T07:01:20;100367.47;;;26.02;60.31
16690;BME280;8458;52.220;9.884;2023-06-26T07:03:46;100363.59;;;26.10;61.31
16690;BME280;8458;52.220;9.884;2023-06-26T07:06:12;100354.78;;;26.19;62.21
16690;BME280;8458;52.220;9.884;2023-06-26T07:08:40;100358.53;;;26.23;61.33
16690;BME280;8458;52.220;9.884;2023-06-26T07:11:07;100363.59;;;26.34;60.64
16690;BME280;8458;52.220;9.884;2023-06-26T07:13:33;100364.34;;;26.30;60.69
16690;BME280;8458;52.220;9.884;2023-06-26T07:16:00;100368.00;;;26.31;59.51
16690;BME280;8458;52.220;9.884;2023-06-26T07:18:26;100370.47;;;26.33;59.99
16690;BME280;8458;52.220;9.884;2023-06-26T07:20:53;100368.81;;;26.32;59.57
16690;BME280;8458;52.220;9.884;2023-06-26T07:23:20;100364.00;;;26.36;59.00
16690;BME280;8458;52.220;9.884;2023-06-26T07:25:47;100362.50;;;26.42;59.43
16690;BME280;8458;52.220;9.884;2023-06-26T07:28:14;100370.31;;;26.48;60.29
16690;BME280;8458;52.220;9.884;2023-06-26T07:30:40;100362.72;;;26.56;60.27
16690;BME280;8458;52.220;9.884;2023-06-26T07:33:07;100378.25;;;26.62;60.70
16690;BME280;8458;52.220;9.884;2023-06-26T07:35:33;100370.25;;;26.68;60.97
16690;BME280;8458;52.220;9.884;2023-06-26T07:38:00;100373.63;;;26.77;61.62
16690;BME280;8458;52.220;9.884;2023-06-26T07:40:26;100378.25;;;26.89;62.06
16690;BME280;8458;52.220;9.884;2023-06-26T07:42:54;100376.28;;;26.93;60.96
16690;BME280;8458;52.220;9.884;2023-06-26T07:45:22;100376.03;;;27.02;60.88
16690;BME280;8458;52.220;9.884;2023-06-26T07:47:49;100362.72;;;27.10;58.99
16690;BME280;8458;52.220;9.884;2023-06-26T07:50:15;100374.94;;;27.14;60.10
16690;BME280;8458;52.220;9.884;2023-06-26T07:52:46;100372.63;;;27.23;59.85
16690;BME280;8458;52.220;9.884;2023-06-26T07:55:13;100371.84;;;27.26;60.01
16690;BME280;8458;52.220;9.884;2023-06-26T07:57:39;100374.06;;;27.36;60.32
16690;BME280;8458;52.220;9.884;2023-06-26T08:00:08;100375.41;;;27.46;58.86
16690;BME280;8458;52.220;9.884;2023-06-26T08:02:35;100377.53;;;27.53;58.08
16690;BME280;8458;52.220;9.884;2023-06-26T08:05:02;100389.38;;;27.59;57.02
16690;BME280;8458;52.220;9.884;2023-06-26T08:07:28;100377.25;;;27.65;58.54
16690;BME280;8458;52.220;9.884;2023-06-26T08:09:54;100371.66;;;27.76;59.36
16690;BME280;8458;52.220;9.884;2023-06-26T08:12:21;100366.84;;;27.84;57.91
16690;BME280;8458;52.220;9.884;2023-06-26T08:14:47;100366.97;;;27.95;58.26
16690;BME280;8458;52.220;9.884;2023-06-26T08:17:15;100366.69;;;28.03;57.96
16690;BME280;8458;52.220;9.884;2023-06-26T08:19:42;100369.53;;;28.03;57.99
16690;BME280;8458;52.220;9.884;2023-06-26T08:22:08;100365.53;;;28.12;58.80
16690;BME280;8458;52.220;9.884;2023-06-26T08:24:35;100359.50;;;28.17;56.71
16690;BME280;8458;52.220;9.884;2023-06-26T08:27:02;100373.28;;;28.11;53.87
16690;BME280;8458;52.220;9.884;2023-06-26T08:29:29;100366.31;;;28.08;55.52
16690;BME280;8458;52.220;9.884;2023-06-26T08:31:55;100356.44;;;27.95;53.07
16690;BME280;8458;52.220;9.884;2023-06-26T08:34:24;100361.66;;;27.93;54.02
16690;BME280;8458;52.220;9.884;2023-06-26T08:36:51;100359.19;;;27.88;54.42
16690;BME280;8458;52.220;9.884;2023-06-26T08:39:17;100344.25;;;27.98;55.09
16690;BME280;8458;52.220;9.884;2023-06-26T08:41:44;100352.91;;;28.09;54.86
16690;BME280;8458;52.220;9.884;2023-06-26T08:44:10;100335.53;;;28.25;54.47
16690;BME280;8458;52.220;9.884;2023-06-26T08:46:37;100342.13;;;28.36;54.71
16690;BME280;8458;52.220;9.884;2023-06-26T08:49:08;100351.94;;;28.42;54.41
16690;BME280;8458;52.220;9.884;2023-06-26T08:51:40;100345.13;;;28.51;53.76
16690;BME280;8458;52.220;9.884;2023-06-26T08:54:11;100350.09;;;28.61;55.51
16690;BME280;8458;52.220;9.884;2023-06-26T08:56:42;100348.47;;;28.64;53.93
16690;BME280;8458;52.220;9.884;2023-06-26T08:59:10;100354.25;;;28.74;54.47
16690;BME280;8458;52.220;9.884;2023-06-26T09:01:38;100370.16;;;28.75;52.85
16690;BME280;8458;52.220;9.884;2023-06-26T09:04:05;100384.03;;;28.81;53.51
16690;BME280;8458;52.220;9.884;2023-06-26T09:06:32;100406.00;;;28.73;54.31
16690;BME280;8458;52.220;9.884;2023-06-26T09:08:59;100403.13;;;28.73;55.95
16690;BME280;8458;52.220;9.884;2023-06-26T09:11:26;100408.38;;;28.67;55.28
16690;BME280;8458;52.220;9.884;2023-06-26T09:13:53;100409.22;;;28.68;56.35
16690;BME280;8458;52.220;9.884;2023-06-26T09:16:24;100403.53;;;28.68;54.12
16690;BME280;8458;52.220;9.884;2023-06-26T09:18:52;100412.28;;;28.48;53.12
16690;BME280;8458;52.220;9.884;2023-06-26T09:21:19;100410.63;;;28.43;53.39
16690;BME280;8458;52.220;9.884;2023-06-26T09:23:46;100406.38;;;28.26;54.02
16690;BME280;8458;52.220;9.884;2023-06-26T09:26:14;100403.13;;;28.24;54.78
16690;BME280;8458;52.220;9.884;2023-06-26T09:28:42;100409.13;;;28.16;54.26
16690;BME280;8458;52.220;9.884;2023-06-26T09:31:09;100403.91;;;28.21;55.70
16690;BME280;8458;52.220;9.884;2023-06-26T09:33:37;100400.72;;;28.30;54.85
16690;BME280;8458;52.220;9.884;2023-06-26T09:36:05;100399.03;;;28.25;54.44
16690;BME280;8458;52.220;9.884;2023-06-26T09:38:33;100408.06;;;28.31;55.92
16690;BME280;8458;52.220;9.884;2023-06-26T09:41:00;100399.16;;;28.36;55.81
16690;BME280;8458;52.220;9.884;2023-06-26T09:43:28;100415.47;;;28.39;56.57
16690;BME280;8458;52.220;9.884;2023-06-26T09:45:56;100423.59;;;28.37;56.45
16690;BME280;8458;52.220;9.884;2023-06-26T09:48:23;100418.75;;;28.41;56.47
16690;BME280;8458;52.220;9.884;2023-06-26T09:50:50;100421.13;;;28.32;57.82
16690;BME280;8458;52.220;9.884;2023-06-26T09:53:17;100423.03;;;28.21;56.11
16690;BME280;8458;52.220;9.884;2023-06-26T09:55:44;100431.56;;;28.21;55.35
16690;BME280;8458;52.220;9.884;2023-06-26T09:58:12;100429.88;;;28.13;56.38
16690;BME280;8458;52.220;9.884;2023-06-26T10:00:42;100440.34;;;28.01;57.09
16690;BME280;8458;52.220;9.884;2023-06-26T10:03:09;100448.16;;;27.78;57.17
16690;BME280;8458;52.220;9.884;2023-06-26T10:05:37;100444.56;;;27.47;56.35
16690;BME280;8458;52.220;9.884;2023-06-26T10:08:04;100454.59;;;27.14;55.05
16690;BME280;8458;52.220;9.884;2023-06-26T10:10:33;100456.06;;;27.00;55.87
16690;BME280;8458;52.220;9.884;2023-06-26T10:13:08;100460.81;;;26.93;57.25
16690;BME280;8458;52.220;9.884;2023-06-26T10:15:40;100473.53;;;26.76;58.41
16690;BME280;8458;52.220;9.884;2023-06-26T10:18:11;100481.97;;;26.49;60.22
16690;BME280;8458;52.220;9.884;2023-06-26T10:20:39;100481.91;;;26.45;61.16
16690;BME280;8458;52.220;9.884;2023-06-26T10:23:07;100480.25;;;26.44;61.81
16690;BME280;8458;52.220;9.884;2023-06-26T10:25:37;100484.88;;;26.29;63.19
16690;BME280;8458;52.220;9.884;2023-06-26T10:28:07;100486.97;;;26.13;63.49
16690;BME280;8458;52.220;9.884;2023-06-26T10:30:36;100489.38;;;26.11;64.07
16690;BME280;8458;52.220;9.884;2023-06-26T10:33:07;100493.78;;;26.28;65.51
16690;BME280;8458;52.220;9.884;2023-06-26T10:35:42;100486.06;;;26.52;66.20
16690;BME280;8458;52.220;9.884;2023-06-26T10:38:08;100488.06;;;26.71;64.35
16690;BME280;8458;52.220;9.884;2023-06-26T10:40:42;100494.75;;;26.82;63.71
16690;BME280;8458;52.220;9.884;2023-06-26T10:43:12;100495.19;;;26.84;64.31
16690;BME280;8458;52.220;9.884;2023-06-26T10:45:43;100491.34;;;26.73;64.90
16690;BME280;8458;52.220;9.884;2023-06-26T10:48:13;100502.72;;;26.73;66.61
16690;BME280;8458;52.220;9.884;2023-06-26T10:50:40;100525.81;;;26.48;67.41
16690;BME280;8458;52.220;9.884;2023-06-26T10:53:08;100539.50;;;26.00;69.25
16690;BME280;8458;52.220;9.884;2023-06-26T10:55:35;100549.63;;;25.81;69.81
16690;BME280;8458;52.220;9.884;2023-06-26T10:58:01;100539.09;;;25.46;71.84
16690;BME280;8458;52.220;9.884;2023-06-26T11:00:28;100554.31;;;25.06;71.10
16690;BME280;8458;52.220;9.884;2023-06-26T11:02:55;100559.63;;;24.92;71.08
16690;BME280;8458;52.220;9.884;2023-06-26T11:05:27;100544.72;;;24.95;69.79
16690;BME280;8458;52.220;9.884;2023-06-26T11:08:03;100553.16;;;24.91;70.26
16690;BME280;8458;52.220;9.884;2023-06-26T11:10:48;100553.97;;;24.92;70.41
16690;BME280;8458;52.220;9.884;2023-06-26T11:13:16;100556.06;;;24.95;70.77
16690;BME280;8458;52.220;9.884;2023-06-26T11:15:43;100561.44;;;25.00;70.68
16690;BME280;8458;52.220;9.884;2023-06-26T11:18:10;100558.91;;;24.95;69.77
16690;BME280;8458;52.220;9.884;2023-06-26T11:20:39;100555.34;;;24.98;70.83
16690;BME280;8458;52.220;9.884;2023-06-26T11:23:07;100557.88;;;25.03;70.28
16690;BME280;8458;52.220;9.884;2023-06-26T11:25:35;100552.03;;;25.12;71.25
16690;BME280;8458;52.220;9.884;2023-06-26T11:28:02;100556.13;;;25.14;70.70
16690;BME280;8458;52.220;9.884;2023-06-26T11:30:30;100560.19;;;25.13;71.25
16690;BME280;8458;52.220;9.884;2023-06-26T11:33:03;100570.06;;;25.19;71.75
16690;BME280;8458;52.220;9.884;2023-06-26T11:35:30;100553.28;;;25.14;72.33
16690;BME280;8458;52.220;9.884;2023-06-26T11:37:59;100570.06;;;25.19;71.93
16690;BME280;8458;52.220;9.884;2023-06-26T11:40:30;100563.63;;;25.22;72.74
16690;BME280;8458;52.220;9.884;2023-06-26T11:42:58;100571.69;;;25.20;73.08
16690;BME280;8458;52.220;9.884;2023-06-26T11:45:24;100572.41;;;25.17;73.19
16690;BME280;8458;52.220;9.884;2023-06-26T11:47:51;100580.56;;;25.19;72.89
16690;BME280;8458;52.220;9.884;2023-06-26T11:50:18;100584.03;;;25.12;73.22
16690;BME280;8458;52.220;9.884;2023-06-26T11:52:45;100584.03;;;25.12;73.57
16690;BME280;8458;52.220;9.884;2023-06-26T11:55:13;100568.03;;;25.20;73.30
16690;BME280;8458;52.220;9.884;2023-06-26T11:57:39;100577.34;;;25.20;72.73
16690;BME280;8458;52.220;9.884;2023-06-26T12:00:13;100571.03;;;25.27;71.71
16690;BME280;8458;52.220;9.884;2023-06-26T12:02:41;100576.53;;;25.20;70.59
16690;BME280;8458;52.220;9.884;2023-06-26T12:05:08;100581.28;;;25.16;71.12
16690;BME280;8458;52.220;9.884;2023-06-26T12:07:35;100586.88;;;25.12;70.58
16690;BME280;8458;52.220;9.884;2023-06-26T12:10:04;100582.22;;;25.20;68.59
16690;BME280;8458;52.220;9.884;2023-06-26T12:12:34;100579.94;;;25.26;67.81
16690;BME280;8458;52.220;9.884;2023-06-26T12:15:00;100586.69;;;25.21;66.81
16690;BME280;8458;52.220;9.884;2023-06-26T12:17:27;100587.63;;;25.09;66.78
16690;BME280;8458;52.220;9.884;2023-06-26T12:19:54;100595.97;;;25.02;67.90
16690;BME280;8458;52.220;9.884;2023-06-26T12:22:21;100601.63;;;25.02;68.87
16690;BME280;8458;52.220;9.884;2023-06-26T12:24:48;100589.81;;;25.00;67.92
16690;BME280;8458;52.220;9.884;2023-06-26T12:27:16;100598.88;;;25.21;68.36
16690;BME280;8458;52.220;9.884;2023-06-26T12:29:50;100603.72;;;25.37;64.82
16690;BME280;8458;52.220;9.884;2023-06-26T12:32:17;100596.09;;;25.57;62.42
16690;BME280;8458;52.220;9.884;2023-06-26T12:34:48;100589.56;;;25.72;62.93
16690;BME280;8458;52.220;9.884;2023-06-26T12:37:15;100599.88;;;25.81;61.27
16690;BME280;8458;52.220;9.884;2023-06-26T12:39:45;100606.63;;;25.56;59.73
16690;BME280;8458;52.220;9.884;2023-06-26T12:42:14;100598.28;;;25.64;57.56
16690;BME280;8458;52.220;9.884;2023-06-26T12:44:40;100601.22;;;25.67;58.82
16690;BME280;8458;52.220;9.884;2023-06-26T12:47:08;100599.38;;;25.75;58.71
16690;BME280;8458;52.220;9.884;2023-06-26T12:49:36;100606.66;;;25.76;58.73
16690;BME280;8458;52.220;9.884;2023-06-26T12:52:05;100615.47;;;25.71;59.60
16690;BME280;8458;52.220;9.884;2023-06-26T12:54:33;100615.03;;;25.69;59.43
16690;BME280;8458;52.220;9.884;2023-06-26T12:56:59;100617.88;;;25.53;59.72
16690;BME280;8458;52.220;9.884;2023-06-26T12:59:26;100617.06;;;25.52;61.18
16690;BME280;8458;52.220;9.884;2023-06-26T13:01:53;100608.28;;;25.57;61.30